Time;durP1;ratioP1;P1;durP2;ratioP2;P2;SDS_P1;SDS_P2;PMS_P1;PMS_P2;Temp;Humidity;BMP_temperature;BMP_pressure;BME280_temperature;BME280_humidity;BME280_pressure;Samples;Min_cycle;Max_cycle;Signal;HPM_P1;HPM_P2
2023/10/29 00:01:36;;;;;;;4.23;1.47;;;;;;;;;;5037295;28;20235;-64
2023/10/29 00:04:05;;;;;;;2.10;1.47;;;;;;;;;;5036493;28;20212;-64
2023/10/29 00:06:32;;;;;;;1.57;1.10;;;;;;;;;;5037597;28;20235;-64
2023/10/29 00:08:59;;;;;;;6.07;1.57;;;;;;;;;;5041472;28;20204;-66
2023/10/29 00:11:26;;;;;;;1.77;0.93;;;;;;;;;;5038199;28;20200;-64
2023/10/29 00:13:53;;;;;;;2.27;1.27;;;;;;;;;;5041479;28;20204;-64
2023/10/29 00:16:20;;;;;;;2.45;1.30;;;;;;;;;;5045119;28;20203;-65
2023/10/29 00:18:47;;;;;;;2.70;1.20;;;;;;;;;;5044455;28;20276;-64
2023/10/29 00:21:16;;;;;;;3.60;1.20;;;;;;;;;;5037810;28;20216;-64
2023/10/29 00:23:43;;;;;;;2.50;1.20;;;;;;;;;;5035879;28;20215;-64
2023/10/29 00:26:10;;;;;;;1.47;0.93;;;;;;;;;;5035249;28;20219;-65
2023/10/29 00:28:37;;;;;;;2.00;0.93;;;;;;;;;;5035944;28;20207;-64
2023/10/29 00:31:04;;;;;;;3.20;1.10;;;;;;;;;;5036607;28;20195;-64
2023/10/29 00:33:32;;;;;;;4.57;1.10;;;;;;;;;;5035529;28;20222;-64
2023/10/29 00:35:59;;;;;;;3.03;1.10;;;;;;;;;;5038692;28;20199;-65
2023/10/29 00:38:27;;;;;;;1.27;0.83;;;;;;;;;;5041580;28;20208;-64
2023/10/29 00:40:54;;;;;;;2.58;1.15;;;;;;;;;;5043382;28;20234;-64
2023/10/29 00:43:21;;;;;;;1.97;1.20;;;;;;;;;;5036063;28;20200;-63
2023/10/29 00:45:53;;;;;;;3.80;0.90;;;;;;;;;;5040470;28;20466;-64
2023/10/29 00:48:20;;;;;;;2.33;1.20;;;;;;;;;;5035276;28;20262;-66
2023/10/29 00:50:47;;;;;;;2.95;0.98;;;;;;;;;;5038157;28;20204;-67
2023/10/29 00:53:14;;;;;;;2.85;0.93;;;;;;;;;;5040468;28;20218;-64
2023/10/29 00:55:43;;;;;;;2.63;1.10;;;;;;;;;;5042230;28;20209;-64
2023/10/29 00:58:10;;;;;;;1.23;1.00;;;;;;;;;;5037027;28;20281;-65
2023/10/29 01:00:37;;;;;;;3.00;1.40;;;;;;;;;;5043541;28;20224;-65
2023/10/29 01:03:04;;;;;;;2.17;0.90;;;;;;;;;;5038241;28;20204;-65
2023/10/29 01:05:31;;;;;;;2.27;0.97;;;;;;;;;;5038475;28;20200;-64
2023/10/29 01:07:59;;;;;;;2.77;1.30;;;;;;;;;;5029610;28;20204;-65
2023/10/29 01:10:26;;;;;;;1.27;1.00;;;;;;;;;;5039353;28;20208;-64
2023/10/29 01:12:54;;;;;;;6.03;1.13;;;;;;;;;;5037793;28;20200;-64
2023/10/29 01:15:21;;;;;;;3.03;1.20;;;;;;;;;;5043889;28;20210;-64
2023/10/29 01:17:48;;;;;;;3.47;1.13;;;;;;;;;;5039766;28;20200;-64
2023/10/29 01:20:16;;;;;;;1.47;1.10;;;;;;;;;;5038780;28;20207;-63
2023/10/29 01:22:43;;;;;;;2.77;1.00;;;;;;;;;;5034860;28;20216;-65
2023/10/29 01:25:10;;;;;;;1.47;0.90;;;;;;;;;;5031451;28;20204;-64
2023/10/29 01:27:37;;;;;;;3.40;1.27;;;;;;;;;;5031362;28;20240;-63
2023/10/29 01:30:07;;;;;;;2.67;1.10;;;;;;;;;;5035357;28;20200;-64
2023/10/29 01:32:34;;;;;;;5.15;1.40;;;;;;;;;;5040590;28;20215;-63
2023/10/29 01:35:02;;;;;;;6.43;1.40;;;;;;;;;;5037571;28;20199;-65
2023/10/29 01:37:29;;;;;;;1.37;0.80;;;;;;;;;;5039537;28;20293;-64
2023/10/29 01:39:56;;;;;;;3.73;0.90;;;;;;;;;;5037696;28;20218;-63
2023/10/29 01:42:23;;;;;;;3.33;1.10;;;;;;;;;;5034665;28;20227;-64
2023/10/29 01:44:50;;;;;;;2.27;1.30;;;;;;;;;;5039944;28;20200;-64
2023/10/29 01:47:18;;;;;;;1.67;1.00;;;;;;;;;;5038814;28;20244;-63
2023/10/29 01:49:46;;;;;;;1.37;0.90;;;;;;;;;;5036827;28;20210;-63
2023/10/29 01:52:13;;;;;;;2.57;1.10;;;;;;;;;;5038028;28;20206;-65
2023/10/29 01:54:40;;;;;;;1.05;0.85;;;;;;;;;;5039547;28;20258;-63
2023/10/29 01:57:08;;;;;;;2.07;1.20;;;;;;;;;;5037632;28;20210;-63
2023/10/29 01:59:36;;;;;;;1.37;0.90;;;;;;;;;;5035842;28;20211;-63
2023/10/29 02:02:03;;;;;;;2.83;1.00;;;;;;;;;;5039712;28;20232;-64
2023/10/29 02:04:33;;;;;;;3.93;1.10;;;;;;;;;;5034712;28;20200;-64
2023/10/29 02:07:00;;;;;;;1.97;1.00;;;;;;;;;;5037925;28;20224;-65
2023/10/29 02:09:28;;;;;;;1.37;0.90;;;;;;;;;;5037569;28;20207;-63
2023/10/29 02:11:55;;;;;;;1.90;1.13;;;;;;;;;;5040162;28;20205;-63
2023/10/29 02:14:22;;;;;;;1.80;0.90;;;;;;;;;;5037636;28;20325;-65
2023/10/29 02:16:50;;;;;;;3.40;1.20;;;;;;;;;;5039648;28;20211;-64
2023/10/29 02:19:21;;;;;;;1.20;0.90;;;;;;;;;;5036179;28;20204;-65
2023/10/29 02:21:50;;;;;;;2.27;0.93;;;;;;;;;;5036235;28;20212;-63
2023/10/29 02:24:18;;;;;;;2.13;1.10;;;;;;;;;;5037158;28;20204;-63
2023/10/29 02:26:45;;;;;;;4.07;1.17;;;;;;;;;;5035276;28;20209;-64
2023/10/29 02:29:15;;;;;;;1.30;1.10;;;;;;;;;;5038870;28;20204;-65
2023/10/29 02:31:42;;;;;;;1.70;1.00;;;;;;;;;;5032914;28;20235;-63
2023/10/29 02:34:09;;;;;;;3.10;1.30;;;;;;;;;;5039129;28;20206;-63
2023/10/29 02:36:36;;;;;;;3.60;1.00;;;;;;;;;;5042610;28;20210;-63
2023/10/29 02:39:06;;;;;;;1.83;0.90;;;;;;;;;;5035463;28;20294;-63
2023/10/29 02:41:35;;;;;;;2.40;1.20;;;;;;;;;;5035209;28;20230;-63
2023/10/29 02:44:04;;;;;;;0.80;0.80;;;;;;;;;;5034684;28;20294;-65
2023/10/29 02:46:31;;;;;;;3.50;1.13;;;;;;;;;;5036213;28;20239;-63
2023/10/29 02:48:59;;;;;;;1.53;1.00;;;;;;;;;;5037247;28;20200;-64
2023/10/29 02:51:26;;;;;;;1.95;1.00;;;;;;;;;;5034000;28;20201;-64
2023/10/29 02:53:53;;;;;;;1.70;0.93;;;;;;;;;;5035772;28;20206;-63
2023/10/29 02:56:20;;;;;;;2.63;1.10;;;;;;;;;;5033379;28;20208;-63
2023/10/29 02:58:48;;;;;;;2.83;1.13;;;;;;;;;;5033008;28;20209;-63
2023/10/29 03:01:17;;;;;;;0.90;0.90;;;;;;;;;;5036314;28;20200;-64
2023/10/29 03:03:47;;;;;;;1.47;1.00;;;;;;;;;;5031853;28;20262;-64
2023/10/29 03:06:14;;;;;;;2.00;1.00;;;;;;;;;;5030636;28;20204;-64
2023/10/29 03:08:41;;;;;;;0.83;0.83;;;;;;;;;;5035729;28;20207;-63
2023/10/29 03:11:09;;;;;;;5.70;0.97;;;;;;;;;;5041588;28;20207;-63
2023/10/29 03:13:37;;;;;;;2.57;0.93;;;;;;;;;;5040193;28;20263;-64
2023/10/29 03:16:06;;;;;;;1.60;0.88;;;;;;;;;;5033541;28;20208;-65
2023/10/29 03:18:33;;;;;;;1.45;0.93;;;;;;;;;;5039830;28;20196;-64
2023/10/29 03:21:00;;;;;;;1.57;0.90;;;;;;;;;;5037435;28;20203;-64
2023/10/29 03:23:27;;;;;;;1.23;0.90;;;;;;;;;;5036368;28;20241;-64
2023/10/29 03:25:54;;;;;;;1.20;1.00;;;;;;;;;;5034889;28;20208;-64
2023/10/29 03:28:21;;;;;;;1.77;1.00;;;;;;;;;;5039070;28;20208;-64
2023/10/29 03:30:48;;;;;;;1.50;1.00;;;;;;;;;;5037079;28;20200;-64
2023/10/29 03:33:17;;;;;;;3.10;0.90;;;;;;;;;;5046147;28;20195;-63
2023/10/29 03:35:44;;;;;;;2.30;1.20;;;;;;;;;;5039893;28;20219;-64
2023/10/29 03:38:11;;;;;;;3.33;1.03;;;;;;;;;;5040419;28;20211;-63
2023/10/29 03:40:39;;;;;;;2.43;1.10;;;;;;;;;;5035616;28;20212;-63
2023/10/29 03:43:06;;;;;;;2.33;1.10;;;;;;;;;;5035238;28;20224;-63
2023/10/29 03:45:33;;;;;;;3.77;1.20;;;;;;;;;;5035836;28;20205;-64
2023/10/29 03:48:00;;;;;;;1.40;1.13;;;;;;;;;;5040299;28;20306;-64
2023/10/29 03:50:29;;;;;;;1.93;1.10;;;;;;;;;;5032429;28;20206;-64
2023/10/29 03:52:56;;;;;;;1.45;1.00;;;;;;;;;;5038000;28;20200;-64
2023/10/29 03:55:23;;;;;;;2.43;1.00;;;;;;;;;;5038208;28;20211;-63
2023/10/29 03:57:50;;;;;;;3.87;1.20;;;;;;;;;;5033875;28;20208;-64
2023/10/29 04:00:18;;;;;;;1.53;1.20;;;;;;;;;;5036459;28;20218;-63
2023/10/29 04:02:45;;;;;;;1.70;1.27;;;;;;;;;;5032883;28;20220;-64
2023/10/29 04:05:12;;;;;;;2.53;1.13;;;;;;;;;;5035440;28;20200;-63
2023/10/29 04:07:40;;;;;;;3.07;1.10;;;;;;;;;;5036739;28;20210;-64
2023/10/29 04:10:08;;;;;;;2.97;1.47;;;;;;;;;;5035440;28;20204;-64
2023/10/29 04:12:35;;;;;;;3.90;1.27;;;;;;;;;;5035231;28;20205;-64
2023/10/29 04:15:04;;;;;;;1.85;1.15;;;;;;;;;;5038283;28;20199;-63
2023/10/29 04:17:31;;;;;;;1.58;1.00;;;;;;;;;;5043090;28;20213;-63
2023/10/29 04:19:59;;;;;;;2.07;1.43;;;;;;;;;;5036777;28;20200;-64
2023/10/29 04:22:26;;;;;;;1.57;1.10;;;;;;;;;;5035613;28;20218;-63
2023/10/29 04:24:54;;;;;;;1.63;1.10;;;;;;;;;;5039040;28;20211;-64
2023/10/29 04:27:21;;;;;;;2.50;1.33;;;;;;;;;;5035549;28;20212;-63
2023/10/29 04:29:48;;;;;;;1.47;1.00;;;;;;;;;;5035899;28;20201;-63
2023/10/29 04:32:16;;;;;;;2.53;1.20;;;;;;;;;;5032119;28;20200;-64
2023/10/29 04:34:43;;;;;;;2.10;1.03;;;;;;;;;;5038183;28;20200;-65
2023/10/29 04:37:10;;;;;;;3.33;1.33;;;;;;;;;;5038554;28;20210;-63
2023/10/29 04:39:38;;;;;;;1.63;1.30;;;;;;;;;;5036051;28;20208;-63
2023/10/29 04:42:07;;;;;;;1.90;1.10;;;;;;;;;;5038075;28;20274;-63
2023/10/29 04:44:34;;;;;;;1.10;0.90;;;;;;;;;;5034005;28;20204;-63
2023/10/29 04:47:03;;;;;;;3.03;1.20;;;;;;;;;;5036693;28;20297;-63
2023/10/29 04:49:31;;;;;;;1.20;0.97;;;;;;;;;;5037236;28;20239;-63
2023/10/29 04:51:58;;;;;;;2.70;1.10;;;;;;;;;;5035726;28;20200;-63
2023/10/29 04:54:25;;;;;;;3.20;1.20;;;;;;;;;;5031900;28;20342;-64
2023/10/29 04:56:52;;;;;;;1.57;1.00;;;;;;;;;;5035911;28;20208;-64
2023/10/29 04:59:20;;;;;;;3.50;1.43;;;;;;;;;;5041325;28;20214;-63
2023/10/29 05:01:47;;;;;;;1.80;1.20;;;;;;;;;;5034014;28;20196;-63
2023/10/29 05:04:15;;;;;;;1.30;1.20;;;;;;;;;;5033232;28;20207;-63
2023/10/29 05:06:42;;;;;;;1.67;1.17;;;;;;;;;;5030310;28;20207;-64
2023/10/29 05:09:09;;;;;;;1.73;1.17;;;;;;;;;;5036893;28;20225;-64
2023/10/29 05:11:39;;;;;;;1.00;0.70;;;;;;;;;;5038381;28;20199;-64
2023/10/29 05:14:06;;;;;;;2.20;1.10;;;;;;;;;;5035913;28;20222;-64
2023/10/29 05:16:34;;;;;;;2.20;1.10;;;;;;;;;;5035800;28;20295;-65
2023/10/29 05:19:02;;;;;;;2.03;1.00;;;;;;;;;;5035714;28;20204;-64
2023/10/29 05:21:29;;;;;;;2.93;1.13;;;;;;;;;;5037064;28;20200;-64
2023/10/29 05:23:56;;;;;;;2.43;1.00;;;;;;;;;;5035285;28;20234;-64
2023/10/29 05:26:23;;;;;;;1.80;1.10;;;;;;;;;;5036695;28;20200;-64
2023/10/29 05:28:51;;;;;;;1.23;0.80;;;;;;;;;;5034663;28;20208;-64
2023/10/29 05:31:18;;;;;;;1.50;1.00;;;;;;;;;;5033368;28;20211;-63
2023/10/29 05:33:46;;;;;;;1.17;0.90;;;;;;;;;;5036336;28;20203;-64
2023/10/29 05:36:13;;;;;;;1.23;0.90;;;;;;;;;;5035078;28;20207;-64
2023/10/29 05:38:40;;;;;;;1.53;1.00;;;;;;;;;;5036539;28;20222;-63
2023/10/29 05:41:07;;;;;;;1.93;0.97;;;;;;;;;;5033199;28;20218;-64
2023/10/29 05:43:36;;;;;;;2.77;1.10;;;;;;;;;;5032824;28;20224;-64
2023/10/29 05:46:03;;;;;;;2.33;1.10;;;;;;;;;;5035239;28;20207;-64
2023/10/29 05:48:30;;;;;;;2.07;1.00;;;;;;;;;;5034624;28;20210;-64
2023/10/29 05:51:00;;;;;;;1.40;1.03;;;;;;;;;;5031214;28;20231;-64
2023/10/29 05:53:27;;;;;;;1.33;1.00;;;;;;;;;;5034501;28;20199;-64
2023/10/29 05:55:54;;;;;;;3.37;1.00;;;;;;;;;;5035133;28;20204;-64
2023/10/29 05:58:23;;;;;;;1.37;1.20;;;;;;;;;;5038697;28;20239;-64
2023/10/29 06:00:50;;;;;;;2.67;1.00;;;;;;;;;;5038902;28;20296;-64
2023/10/29 06:03:17;;;;;;;1.83;1.10;;;;;;;;;;5034666;28;20223;-64
2023/10/29 06:05:44;;;;;;;1.73;1.07;;;;;;;;;;5034354;28;20199;-65
2023/10/29 06:08:15;;;;;;;1.30;1.20;;;;;;;;;;5035491;28;20204;-63
2023/10/29 06:10:43;;;;;;;3.13;1.10;;;;;;;;;;5038921;28;20239;-65
2023/10/29 06:13:10;;;;;;;3.10;1.33;;;;;;;;;;5035104;28;20192;-63
2023/10/29 06:15:40;;;;;;;2.40;1.17;;;;;;;;;;5033074;28;20203;-64
2023/10/29 06:18:09;;;;;;;2.90;1.10;;;;;;;;;;5038955;28;20216;-65
2023/10/29 06:20:40;;;;;;;2.40;1.67;;;;;;;;;;5029947;28;20200;-63
2023/10/29 06:23:07;;;;;;;1.73;1.40;;;;;;;;;;5037661;28;20230;-64
2023/10/29 06:25:35;;;;;;;1.57;1.40;;;;;;;;;;5032497;28;20210;-65
2023/10/29 06:28:03;;;;;;;2.33;1.30;;;;;;;;;;5037979;28;20200;-63
2023/10/29 06:30:30;;;;;;;1.90;1.10;;;;;;;;;;5034118;28;20203;-64
2023/10/29 06:33:02;;;;;;;1.50;1.20;;;;;;;;;;5034008;28;20195;-64
2023/10/29 06:35:29;;;;;;;2.13;1.23;;;;;;;;;;5033132;28;20225;-63
2023/10/29 06:37:56;;;;;;;1.90;1.27;;;;;;;;;;5037881;28;20199;-63
2023/10/29 06:40:24;;;;;;;2.33;1.37;;;;;;;;;;5033960;28;20204;-63
2023/10/29 06:42:53;;;;;;;3.20;1.10;;;;;;;;;;5032230;28;20311;-64
2023/10/29 06:45:22;;;;;;;1.70;1.27;;;;;;;;;;5033624;28;20205;-63
2023/10/29 06:47:49;;;;;;;1.50;1.40;;;;;;;;;;5038253;28;20236;-70
2023/10/29 06:50:17;;;;;;;1.70;1.50;;;;;;;;;;5040345;28;20211;-69
2023/10/29 06:52:44;;;;;;;1.63;1.40;;;;;;;;;;5036114;28;20266;-70
2023/10/29 06:55:14;;;;;;;2.47;1.60;;;;;;;;;;5039097;28;20208;-69
2023/10/29 06:57:41;;;;;;;3.83;2.00;;;;;;;;;;5037156;28;20522;-70
2023/10/29 07:00:10;;;;;;;2.00;1.80;;;;;;;;;;5039732;28;20210;-68
2023/10/29 07:02:37;;;;;;;2.43;1.60;;;;;;;;;;5038173;28;20230;-69
2023/10/29 07:05:05;;;;;;;2.57;1.40;;;;;;;;;;5031983;28;20235;-68
2023/10/29 07:07:32;;;;;;;3.30;1.60;;;;;;;;;;5035481;28;20207;-69
2023/10/29 07:09:59;;;;;;;2.87;1.40;;;;;;;;;;5036181;28;20192;-69
2023/10/29 07:12:26;;;;;;;2.53;1.40;;;;;;;;;;5035222;28;20196;-68
2023/10/29 07:14:53;;;;;;;3.53;1.27;;;;;;;;;;5034258;28;20203;-69
2023/10/29 07:17:22;;;;;;;1.20;1.10;;;;;;;;;;5035058;28;20204;-68
2023/10/29 07:19:49;;;;;;;2.03;1.27;;;;;;;;;;5036877;28;20319;-69
2023/10/29 07:22:16;;;;;;;2.87;1.80;;;;;;;;;;5041230;28;20214;-69
2023/10/29 07:24:43;;;;;;;1.47;1.10;;;;;;;;;;5038706;28;20230;-68
2023/10/29 07:27:10;;;;;;;1.17;1.07;;;;;;;;;;5038809;28;20204;-69
2023/10/29 07:29:38;;;;;;;1.40;1.00;;;;;;;;;;5039851;28;20200;-69
2023/10/29 07:32:05;;;;;;;1.10;1.00;;;;;;;;;;5036881;28;20266;-68
2023/10/29 07:34:34;;;;;;;1.17;1.00;;;;;;;;;;5036371;28;20206;-69
2023/10/29 07:37:01;;;;;;;2.23;1.10;;;;;;;;;;5034809;28;20208;-69
2023/10/29 07:39:28;;;;;;;1.63;1.00;;;;;;;;;;5041832;28;20199;-69
2023/10/29 07:41:55;;;;;;;2.70;1.30;;;;;;;;;;5031278;28;20204;-69
2023/10/29 07:44:25;;;;;;;2.63;1.10;;;;;;;;;;5039106;28;20212;-69
2023/10/29 07:46:52;;;;;;;1.57;0.97;;;;;;;;;;5039451;28;20301;-69
2023/10/29 07:49:19;;;;;;;2.00;1.47;;;;;;;;;;5039017;28;20200;-68
2023/10/29 07:51:49;;;;;;;1.63;1.10;;;;;;;;;;5039669;28;20245;-68
2023/10/29 07:54:16;;;;;;;2.20;1.27;;;;;;;;;;5034138;28;20204;-69
2023/10/29 07:56:43;;;;;;;2.10;1.42;;;;;;;;;;5037861;28;20235;-68
2023/10/29 07:59:10;;;;;;;1.77;1.20;;;;;;;;;;5038864;28;20210;-68
2023/10/29 08:01:38;;;;;;;1.70;1.10;;;;;;;;;;5036904;28;20223;-69
2023/10/29 08:04:05;;;;;;;1.33;1.20;;;;;;;;;;5039613;28;20219;-69
2023/10/29 08:06:32;;;;;;;1.70;1.30;;;;;;;;;;5043323;28;20204;-69
2023/10/29 08:09:00;;;;;;;1.97;1.10;;;;;;;;;;5038397;28;20204;-68
2023/10/29 08:11:27;;;;;;;1.77;1.20;;;;;;;;;;5037141;28;20206;-67
2023/10/29 08:13:55;;;;;;;1.52;1.20;;;;;;;;;;5039640;28;20195;-69
2023/10/29 08:16:22;;;;;;;1.27;1.00;;;;;;;;;;5040832;28;20200;-68
2023/10/29 08:18:50;;;;;;;1.20;1.10;;;;;;;;;;5041221;28;20204;-68
2023/10/29 08:21:18;;;;;;;1.53;1.00;;;;;;;;;;5039020;28;20231;-68
2023/10/29 08:23:45;;;;;;;2.43;1.20;;;;;;;;;;5042290;28;20430;-69
2023/10/29 08:26:13;;;;;;;2.65;1.17;;;;;;;;;;5038413;28;20216;-68
2023/10/29 08:28:40;;;;;;;1.10;1.00;;;;;;;;;;5039768;28;20324;-69
2023/10/29 08:31:08;;;;;;;1.40;1.30;;;;;;;;;;5036767;28;20299;-68
2023/10/29 08:33:36;;;;;;;2.58;1.10;;;;;;;;;;5038181;28;20211;-68
2023/10/29 08:36:03;;;;;;;1.80;1.27;;;;;;;;;;5034903;28;20204;-69
2023/10/29 08:38:30;;;;;;;2.10;1.10;;;;;;;;;;5034678;28;20197;-68
2023/10/29 08:40:58;;;;;;;1.23;1.10;;;;;;;;;;5037999;28;20203;-69
2023/10/29 08:43:27;;;;;;;1.20;1.00;;;;;;;;;;5034930;28;20204;-68
2023/10/29 08:45:54;;;;;;;2.03;1.20;;;;;;;;;;5032777;28;20207;-69
2023/10/29 08:48:22;;;;;;;1.60;1.07;;;;;;;;;;5031046;28;20333;-68
2023/10/29 08:50:49;;;;;;;1.35;1.15;;;;;;;;;;5037520;28;20201;-69
2023/10/29 08:53:16;;;;;;;1.88;1.20;;;;;;;;;;5037072;28;20253;-69
2023/10/29 08:55:44;;;;;;;2.35;1.30;;;;;;;;;;5037355;28;20291;-69
2023/10/29 08:58:11;;;;;;;1.15;0.90;;;;;;;;;;5037337;28;20204;-68
2023/10/29 09:00:40;;;;;;;1.73;1.00;;;;;;;;;;5034399;28;20283;-68
2023/10/29 09:03:07;;;;;;;1.13;1.02;;;;;;;;;;5034754;28;20227;-67
2023/10/29 09:05:35;;;;;;;1.20;1.10;;;;;;;;;;5035039;28;20326;-68
2023/10/29 09:08:03;;;;;;;2.30;1.10;;;;;;;;;;5033910;28;20195;-64
2023/10/29 09:10:30;;;;;;;1.87;1.10;;;;;;;;;;5034944;28;20210;-64
2023/10/29 09:12:57;;;;;;;1.52;1.27;;;;;;;;;;5035790;28;20204;-64
2023/10/29 09:15:25;;;;;;;1.67;1.08;;;;;;;;;;5034081;28;20214;-64
2023/10/29 09:17:53;;;;;;;1.63;1.40;;;;;;;;;;5038215;28;20203;-64
2023/10/29 09:20:21;;;;;;;1.17;0.90;;;;;;;;;;5036607;28;20208;-64
2023/10/29 09:22:48;;;;;;;1.83;1.10;;;;;;;;;;5036638;28;20208;-63
2023/10/29 09:25:15;;;;;;;1.73;1.10;;;;;;;;;;5034697;28;20319;-63
2023/10/29 09:27:42;;;;;;;1.37;1.27;;;;;;;;;;5032059;28;20192;-63
2023/10/29 09:30:10;;;;;;;4.93;1.40;;;;;;;;;;5036152;28;20219;-63
2023/10/29 09:32:38;;;;;;;1.97;1.73;;;;;;;;;;5041657;28;20210;-63
2023/10/29 09:35:07;;;;;;;1.87;1.70;;;;;;;;;;5034740;28;20211;-63
2023/10/29 09:37:35;;;;;;;1.03;1.00;;;;;;;;;;5035296;28;20308;-64
2023/10/29 09:40:03;;;;;;;1.00;1.00;;;;;;;;;;5039665;28;20212;-63
2023/10/29 09:42:31;;;;;;;1.70;1.10;;;;;;;;;;5038933;28;20222;-63
2023/10/29 09:45:00;;;;;;;1.80;0.97;;;;;;;;;;5030930;28;20246;-64
2023/10/29 09:47:28;;;;;;;3.17;1.20;;;;;;;;;;5029417;28;20243;-64
2023/10/29 09:49:56;;;;;;;2.03;1.20;;;;;;;;;;5033325;28;20204;-63
2023/10/29 09:52:29;;;;;;;3.47;1.30;;;;;;;;;;5038174;28;20207;-63
2023/10/29 09:54:58;;;;;;;2.10;1.17;;;;;;;;;;5031107;28;20200;-63
2023/10/29 09:57:25;;;;;;;1.88;1.25;;;;;;;;;;5039131;28;20199;-63
2023/10/29 09:59:52;;;;;;;2.67;1.20;;;;;;;;;;5029495;28;20208;-63
2023/10/29 10:02:20;;;;;;;1.05;0.90;;;;;;;;;;5037254;28;20207;-63
2023/10/29 10:04:49;;;;;;;1.73;1.10;;;;;;;;;;5034892;28;20231;-64
2023/10/29 10:07:17;;;;;;;1.02;0.95;;;;;;;;;;5032972;28;20227;-64
2023/10/29 10:09:54;;;;;;;2.10;1.40;;;;;;;;;;5030201;28;20204;-63
2023/10/29 10:12:24;;;;;;;1.98;1.23;;;;;;;;;;5040628;28;20218;-62
2023/10/29 10:14:52;;;;;;;2.33;1.20;;;;;;;;;;5030700;28;20211;-63
2023/10/29 10:17:19;;;;;;;4.03;1.40;;;;;;;;;;5032711;28;20226;-63
2023/10/29 10:19:46;;;;;;;1.52;0.90;;;;;;;;;;5033054;28;20199;-63
2023/10/29 10:22:14;;;;;;;1.33;1.08;;;;;;;;;;5042643;28;20195;-64
2023/10/29 10:24:43;;;;;;;1.53;1.00;;;;;;;;;;5037225;28;20230;-65
2023/10/29 10:27:12;;;;;;;2.45;1.00;;;;;;;;;;5035783;28;20207;-67
2023/10/29 10:29:39;;;;;;;1.83;0.90;;;;;;;;;;5038202;28;20203;-67
2023/10/29 10:32:08;;;;;;;1.92;1.00;;;;;;;;;;5040938;28;20199;-68
2023/10/29 10:34:37;;;;;;;1.10;1.00;;;;;;;;;;5041360;28;20227;-67
2023/10/29 10:37:05;;;;;;;1.40;1.30;;;;;;;;;;5040486;28;20196;-68
2023/10/29 10:39:33;;;;;;;1.90;1.20;;;;;;;;;;5035187;28;20200;-67
2023/10/29 10:42:02;;;;;;;1.23;1.03;;;;;;;;;;5034082;28;20197;-68
2023/10/29 10:44:31;;;;;;;1.00;0.90;;;;;;;;;;5039035;28;20224;-67
2023/10/29 10:46:59;;;;;;;1.23;0.90;;;;;;;;;;5037477;28;20296;-68
2023/10/29 10:49:31;;;;;;;1.53;0.90;;;;;;;;;;5034401;28;20210;-68
2023/10/29 10:52:01;;;;;;;1.02;0.90;;;;;;;;;;5036276;28;20215;-68
2023/10/29 10:54:29;;;;;;;2.10;0.97;;;;;;;;;;5038423;28;20271;-66
2023/10/29 10:56:57;;;;;;;1.40;1.00;;;;;;;;;;5036552;28;20200;-67
2023/10/29 10:59:25;;;;;;;2.58;1.15;;;;;;;;;;5036386;28;20211;-68
2023/10/29 11:01:53;;;;;;;2.45;1.33;;;;;;;;;;5042237;28;20203;-68
2023/10/29 11:04:22;;;;;;;1.73;0.90;;;;;;;;;;5033182;28;20227;-67
2023/10/29 11:06:49;;;;;;;1.20;0.70;;;;;;;;;;5026368;28;20211;-69
2023/10/29 11:09:19;;;;;;;1.15;0.90;;;;;;;;;;5036635;28;20204;-67
2023/10/29 11:11:51;;;;;;;1.33;0.90;;;;;;;;;;5039946;28;20201;-68
2023/10/29 11:14:20;;;;;;;1.50;0.90;;;;;;;;;;5038588;28;20214;-68
2023/10/29 11:16:48;;;;;;;1.60;0.80;;;;;;;;;;5033254;28;20212;-68
2023/10/29 11:19:35;;;;;;;1.33;0.93;;;;;;;;;;5038488;28;20204;-68
2023/10/29 11:22:16;;;;;;;0.88;0.88;;;;;;;;;;5038200;28;20200;-68
2023/10/29 11:24:44;;;;;;;1.75;0.80;;;;;;;;;;5041303;28;20220;-68
2023/10/29 11:27:30;;;;;;;1.40;0.90;;;;;;;;;;5040089;28;20214;-69
2023/10/29 11:30:10;;;;;;;0.85;0.80;;;;;;;;;;5036295;28;20254;-68
2023/10/29 11:32:38;;;;;;;1.15;0.80;;;;;;;;;;5044086;28;20277;-68
2023/10/29 11:35:21;;;;;;;0.83;0.63;;;;;;;;;;5039542;28;20205;-69
2023/10/29 11:37:52;;;;;;;5.65;1.13;;;;;;;;;;5038068;28;20208;-68
2023/10/29 11:40:35;;;;;;;2.17;0.80;;;;;;;;;;5037220;28;20207;-68
2023/10/29 11:43:16;;;;;;;0.85;0.85;;;;;;;;;;5037629;28;20206;-68
2023/10/29 11:45:43;;;;;;;1.63;0.97;;;;;;;;;;5038265;28;20206;-68
2023/10/29 11:48:11;;;;;;;2.67;0.82;;;;;;;;;;5041345;28;20235;-67
2023/10/29 11:50:40;;;;;;;0.93;0.80;;;;;;;;;;5037283;28;20214;-67
2023/10/29 11:53:23;;;;;;;1.40;0.80;;;;;;;;;;5039866;28;20291;-68
2023/10/29 11:55:51;;;;;;;1.30;0.80;;;;;;;;;;5033992;28;20223;-68
2023/10/29 11:58:20;;;;;;;1.67;0.82;;;;;;;;;;5037375;28;20215;-68
2023/10/29 12:00:47;;;;;;;1.02;0.70;;;;;;;;;;5036387;28;20215;-68
2023/10/29 12:03:19;;;;;;;1.42;0.70;;;;;;;;;;5040586;28;20285;-68
2023/10/29 12:05:48;;;;;;;0.95;0.63;;;;;;;;;;5039402;28;20220;-68
2023/10/29 12:08:17;;;;;;;0.60;0.60;;;;;;;;;;5030997;28;20212;-68
2023/10/29 12:10:48;;;;;;;1.38;0.60;;;;;;;;;;5032781;28;20232;-67
2023/10/29 12:13:18;;;;;;;1.90;0.60;;;;;;;;;;5035561;28;20208;-68
2023/10/29 12:15:47;;;;;;;1.48;0.65;;;;;;;;;;5030529;28;20215;-67
2023/10/29 12:18:21;;;;;;;0.70;0.70;;;;;;;;;;5038774;28;20523;-67
2023/10/29 12:20:48;;;;;;;0.50;0.50;;;;;;;;;;5026475;28;20212;-67
2023/10/29 12:23:18;;;;;;;1.00;0.70;;;;;;;;;;5039702;28;20277;-68
2023/10/29 12:25:45;;;;;;;0.60;0.60;;;;;;;;;;5036157;28;20315;-67
2023/10/29 12:28:14;;;;;;;0.57;0.57;;;;;;;;;;5029642;28;20207;-68
2023/10/29 12:30:42;;;;;;;0.85;0.50;;;;;;;;;;5040142;28;20279;-68
2023/10/29 12:33:15;;;;;;;0.53;0.53;;;;;;;;;;5032299;28;20220;-67
2023/10/29 12:35:42;;;;;;;0.47;0.40;;;;;;;;;;5039126;28;20193;-68
2023/10/29 12:38:11;;;;;;;1.53;0.47;;;;;;;;;;5034838;28;20390;-69
2023/10/29 12:40:59;;;;;;;0.70;0.50;;;;;;;;;;5029844;28;20200;-67
2023/10/29 12:43:35;;;;;;;1.20;0.50;;;;;;;;;;5031461;28;20290;-67
2023/10/29 12:46:03;;;;;;;0.60;0.50;;;;;;;;;;5038992;28;20254;-68
2023/10/29 12:48:31;;;;;;;0.95;0.50;;;;;;;;;;5036688;28;20206;-67
2023/10/29 12:50:58;;;;;;;0.38;0.38;;;;;;;;;;5025729;28;20219;-67
2023/10/29 12:53:25;;;;;;;0.80;0.50;;;;;;;;;;5029827;28;20226;-67
2023/10/29 12:55:54;;;;;;;0.50;0.50;;;;;;;;;;5034380;28;20199;-67
2023/10/29 12:58:22;;;;;;;0.30;0.30;;;;;;;;;;5037116;28;20215;-67
2023/10/29 13:00:49;;;;;;;1.50;0.40;;;;;;;;;;5033202;28;20211;-67
2023/10/29 13:03:19;;;;;;;0.50;0.50;;;;;;;;;;5032878;28;20208;-68
2023/10/29 13:05:46;;;;;;;0.50;0.50;;;;;;;;;;5030542;28;20239;-68
2023/10/29 13:08:15;;;;;;;0.50;0.50;;;;;;;;;;5037206;28;20203;-68
2023/10/29 13:10:46;;;;;;;0.50;0.50;;;;;;;;;;5030840;28;20204;-67
2023/10/29 13:13:15;;;;;;;1.75;0.50;;;;;;;;;;5032022;28;20257;-67
2023/10/29 13:15:42;;;;;;;0.50;0.50;;;;;;;;;;5033986;28;20303;-68
2023/10/29 13:18:13;;;;;;;0.57;0.57;;;;;;;;;;5033163;28;20223;-67
2023/10/29 13:20:41;;;;;;;0.70;0.70;;;;;;;;;;5036579;28;20208;-68
2023/10/29 13:23:11;;;;;;;0.73;0.60;;;;;;;;;;5033005;28;20211;-67
2023/10/29 13:25:41;;;;;;;0.80;0.80;;;;;;;;;;5033786;28;20242;-67
2023/10/29 13:28:08;;;;;;;1.13;0.75;;;;;;;;;;5034169;28;20238;-67
2023/10/29 13:30:37;;;;;;;0.77;0.77;;;;;;;;;;5035674;28;20203;-67
2023/10/29 13:33:04;;;;;;;0.70;0.70;;;;;;;;;;5037803;28;20206;-67
2023/10/29 13:35:31;;;;;;;0.67;0.60;;;;;;;;;;5035775;28;20278;-67
2023/10/29 13:37:59;;;;;;;0.80;0.80;;;;;;;;;;5034308;28;20200;-67
2023/10/29 13:40:26;;;;;;;2.50;0.80;;;;;;;;;;5039064;28;20292;-67
2023/10/29 13:42:53;;;;;;;0.60;0.60;;;;;;;;;;5039290;28;20236;-67
2023/10/29 13:45:21;;;;;;;2.30;0.60;;;;;;;;;;5036327;28;20219;-68
2023/10/29 13:47:49;;;;;;;0.60;0.60;;;;;;;;;;5039617;28;20231;-68
2023/10/29 13:50:16;;;;;;;1.10;0.80;;;;;;;;;;5031337;28;20261;-68
2023/10/29 13:52:43;;;;;;;1.00;0.70;;;;;;;;;;5034689;28;20207;-67
2023/10/29 13:55:11;;;;;;;1.60;0.65;;;;;;;;;;5029667;28;20317;-67
2023/10/29 13:57:39;;;;;;;0.60;0.50;;;;;;;;;;5027467;28;20196;-64
2023/10/29 14:00:08;;;;;;;1.48;0.50;;;;;;;;;;5024026;28;20234;-63
2023/10/29 14:02:36;;;;;;;1.05;0.80;;;;;;;;;;5030369;28;20211;-63
2023/10/29 14:05:05;;;;;;;1.13;0.90;;;;;;;;;;5036352;28;20315;-64
2023/10/29 14:07:33;;;;;;;1.65;1.30;;;;;;;;;;5043871;28;20261;-64
2023/10/29 14:10:00;;;;;;;2.33;1.60;;;;;;;;;;5032282;28;20230;-63
2023/10/29 14:12:28;;;;;;;5.28;2.83;;;;;;;;;;5035589;28;20195;-64
2023/10/29 14:14:56;;;;;;;4.55;2.53;;;;;;;;;;5032141;28;20242;-64
2023/10/29 14:17:23;;;;;;;1.63;1.05;;;;;;;;;;5035099;28;20253;-65
2023/10/29 14:19:51;;;;;;;1.50;0.95;;;;;;;;;;5027679;28;20291;-64
2023/10/29 14:22:19;;;;;;;0.57;0.57;;;;;;;;;;5031318;28;20286;-63
2023/10/29 14:24:48;;;;;;;0.98;0.60;;;;;;;;;;5026847;28;20196;-63
2023/10/29 14:27:15;;;;;;;0.82;0.52;;;;;;;;;;5029680;28;20242;-63
2023/10/29 14:29:42;;;;;;;0.88;0.65;;;;;;;;;;5022903;28;20203;-63
2023/10/29 14:32:10;;;;;;;1.20;0.50;;;;;;;;;;5030758;28;20212;-64
2023/10/29 14:34:37;;;;;;;0.60;0.60;;;;;;;;;;5028757;28;20212;-64
2023/10/29 14:37:07;;;;;;;1.42;0.60;;;;;;;;;;5033486;28;20200;-63
2023/10/29 14:39:36;;;;;;;0.85;0.70;;;;;;;;;;5025984;28;20239;-63
2023/10/29 14:42:03;;;;;;;1.38;0.90;;;;;;;;;;5037657;28;20207;-63
2023/10/29 14:44:32;;;;;;;0.75;0.70;;;;;;;;;;5029965;28;20286;-64
2023/10/29 14:46:59;;;;;;;0.98;0.80;;;;;;;;;;5033058;28;20246;-63
2023/10/29 14:49:26;;;;;;;0.50;0.50;;;;;;;;;;5020993;28;20301;-63